Time;durP1;ratioP1;P1;durP2;ratioP2;P2;SDS_P1;SDS_P2;PMS_P1;PMS_P2;Temp;Humidity;BMP_temperature;BMP_pressure;BME280_temperature;BME280_humidity;BME280_pressure;Samples;Min_cycle;Max_cycle;Signal;HPM_P1;HPM_P2
2023/03/06 00:01:47;;;;;;;24.13;11.98;;;;;;;5.96;74.84;99958.25;5038909;28;21973;-72
2023/03/06 00:04:16;;;;;;;19.20;11.25;;;;;;;5.96;75.13;99956.47;5055708;28;20043;-72
2023/03/06 00:06:41;;;;;;;20.27;12.02;;;;;;;5.96;75.54;99955.66;5054622;28;20032;-73
2023/03/06 00:09:08;;;;;;;23.83;13.43;;;;;;;5.95;74.77;99960.00;5052169;28;20391;-73
2023/03/06 00:11:34;;;;;;;29.15;13.43;;;;;;;5.96;74.63;99963.41;5053927;28;20119;-72
2023/03/06 00:13:59;;;;;;;21.30;12.00;;;;;;;5.99;74.49;99960.59;5049125;28;20054;-72
2023/03/06 00:16:25;;;;;;;22.05;11.55;;;;;;;6.04;73.75;99963.59;5054352;28;20399;-72
2023/03/06 00:18:51;;;;;;;23.73;11.82;;;;;;;6.07;73.80;99958.19;5053797;28;20032;-73
2023/03/06 00:21:16;;;;;;;24.58;12.55;;;;;;;6.13;73.27;99956.84;5035074;28;20021;-72
2023/03/06 00:23:42;;;;;;;20.92;11.68;;;;;;;6.13;72.84;99960.25;5053064;28;20106;-72
2023/03/06 00:26:08;;;;;;;18.95;11.15;;;;;;;6.10;73.24;99959.69;5052810;28;20025;-72
2023/03/06 00:28:34;;;;;;;19.45;10.48;;;;;;;6.17;72.56;99961.59;5052908;28;20059;-72
2023/03/06 00:31:00;;;;;;;19.83;10.88;;;;;;;6.23;72.36;99955.94;5053900;28;20225;-71
2023/03/06 00:33:26;;;;;;;18.10;10.55;;;;;;;6.26;72.16;99960.03;5053869;28;20068;-72
2023/03/06 00:35:51;;;;;;;16.73;10.02;;;;;;;6.38;71.26;99965.94;5052550;28;20448;-71
2023/03/06 00:38:16;;;;;;;22.75;10.60;;;;;;;6.44;71.09;99958.47;5053870;28;20153;-72
2023/03/06 00:40:42;;;;;;;18.45;10.05;;;;;;;6.47;70.97;99958.22;5062731;28;20075;-72
2023/03/06 00:43:07;;;;;;;16.23;9.73;;;;;;;6.45;71.14;99959.31;5050730;28;20028;-72
2023/03/06 00:45:33;;;;;;;18.42;9.57;;;;;;;6.39;71.81;99958.03;5049109;28;20392;-72
2023/03/06 00:47:58;;;;;;;20.33;10.93;;;;;;;6.29;72.92;99950.25;5051605;28;20720;-72
2023/03/06 00:50:23;;;;;;;20.48;11.77;;;;;;;6.16;74.36;99959.97;5053700;28;20037;-71
2023/03/06 00:52:49;;;;;;;20.45;11.25;;;;;;;6.04;75.07;99960.19;5050315;28;20127;-71
2023/03/06 00:55:14;;;;;;;21.95;11.98;;;;;;;5.97;75.54;99954.72;5054067;28;21347;-71
2023/03/06 00:57:40;;;;;;;23.25;12.65;;;;;;;5.94;75.31;99949.78;5050912;28;20515;-72
2023/03/06 01:00:07;;;;;;;20.75;11.35;;;;;;;5.95;74.88;99946.25;5051835;28;20047;-72
2023/03/06 01:02:32;;;;;;;17.40;11.40;;;;;;;5.95;74.15;99954.03;5052564;28;20120;-72
2023/03/06 01:04:57;;;;;;;20.83;11.48;;;;;;;5.94;74.39;99953.19;5050640;28;20911;-72
2023/03/06 01:07:23;;;;;;;19.17;11.95;;;;;;;5.97;74.45;99944.38;5051631;28;20040;-71
2023/03/06 01:09:49;;;;;;;22.58;11.18;;;;;;;5.96;74.50;99942.72;5036956;28;20028;-72
2023/03/06 01:12:14;;;;;;;18.75;11.02;;;;;;;5.96;74.13;99940.16;5051565;28;20076;-71
2023/03/06 01:14:39;;;;;;;18.52;10.75;;;;;;;5.97;74.11;99934.84;5052582;28;20037;-73
2023/03/06 01:17:05;;;;;;;17.77;10.85;;;;;;;5.96;74.80;99933.22;5050909;28;20772;-71
2023/03/06 01:19:30;;;;;;;21.65;11.85;;;;;;;5.95;75.35;99930.75;5048550;28;20041;-73
2023/03/06 01:21:56;;;;;;;21.02;11.43;;;;;;;5.91;76.02;99927.59;5047631;28;20059;-72
2023/03/06 01:24:24;;;;;;;20.20;11.30;;;;;;;5.87;76.94;99922.78;5051241;28;20033;-73
2023/03/06 01:26:50;;;;;;;22.70;11.45;;;;;;;5.86;77.17;99915.97;5048666;28;20046;-72
2023/03/06 01:29:15;;;;;;;16.90;10.88;;;;;;;5.86;77.22;99923.72;5050245;28;20032;-72
2023/03/06 01:31:41;;;;;;;20.98;11.57;;;;;;;5.84;77.05;99912.69;5052027;28;20354;-73
2023/03/06 01:34:06;;;;;;;19.63;11.35;;;;;;;5.90;75.95;99907.88;5051316;28;20063;-72
2023/03/06 01:36:31;;;;;;;20.58;12.70;;;;;;;5.95;75.49;99899.72;5050639;28;20109;-72
2023/03/06 01:38:57;;;;;;;21.23;11.63;;;;;;;5.92;75.27;99895.63;5051589;28;20561;-71
2023/03/06 01:41:23;;;;;;;19.80;11.85;;;;;;;5.94;75.26;99908.44;5051860;28;20695;-72
2023/03/06 01:43:49;;;;;;;18.42;10.98;;;;;;;6.01;74.30;99896.63;5051895;28;20495;-72
2023/03/06 01:46:40;;;;;;;20.58;11.27;;;;;;;6.08;74.41;99896.94;5052004;28;20036;-71
2023/03/06 01:49:12;;;;;;;17.23;11.32;;;;;;;6.14;73.52;99893.81;5051685;28;20050;-72
2023/03/06 01:51:49;;;;;;;15.35;10.77;;;;;;;6.19;73.26;99894.22;5050882;28;20055;-72
2023/03/06 01:54:21;;;;;;;19.58;10.18;;;;;;;6.20;73.20;99896.69;5049355;28;20510;-72
2023/03/06 01:56:48;;;;;;;22.52;10.90;;;;;;;6.24;72.47;99895.47;5051327;28;20047;-72
2023/03/06 01:59:15;;;;;;;22.33;10.50;;;;;;;6.26;72.47;99888.41;5050127;28;20051;-72
2023/03/06 02:01:43;;;;;;;19.45;10.57;;;;;;;6.30;72.13;99883.78;5051840;28;20035;-72
2023/03/06 02:04:09;;;;;;;15.65;9.68;;;;;;;6.35;71.87;99881.63;5051038;28;20125;-71
2023/03/06 02:06:38;;;;;;;17.95;9.80;;;;;;;6.39;71.04;99877.00;5052434;28;20151;-71
2023/03/06 02:09:05;;;;;;;19.02;9.68;;;;;;;6.44;70.90;99878.25;5050299;28;20079;-72
2023/03/06 02:11:30;;;;;;;18.42;9.60;;;;;;;6.50;70.21;99877.72;5051403;28;20032;-71
2023/03/06 02:13:56;;;;;;;19.63;9.88;;;;;;;6.52;70.16;99875.00;5051051;28;20031;-72
2023/03/06 02:16:26;;;;;;;14.90;9.13;;;;;;;6.50;70.30;99879.50;5053836;28;20032;-71
2023/03/06 02:18:52;;;;;;;19.92;9.50;;;;;;;6.50;70.26;99875.16;5054269;28;20048;-72
2023/03/06 02:21:23;;;;;;;15.13;9.70;;;;;;;6.53;69.92;99874.06;5052141;28;20038;-72
2023/03/06 02:24:14;;;;;;;16.80;10.55;;;;;;;6.53;69.68;99868.88;5050272;28;20060;-72
2023/03/06 02:26:41;;;;;;;16.05;9.70;;;;;;;6.53;70.17;99868.88;5050490;28;20060;-71
2023/03/06 02:29:07;;;;;;;16.42;9.40;;;;;;;6.53;69.92;99874.88;5049601;28;20583;-72
2023/03/06 02:31:34;;;;;;;18.05;9.30;;;;;;;6.50;69.76;99859.63;5048719;28;20033;-72
2023/03/06 02:34:19;;;;;;;18.25;10.05;;;;;;;6.47;69.78;99856.47;5050021;28;20044;-71
2023/03/06 02:36:49;;;;;;;18.75;10.05;;;;;;;6.49;70.03;99851.97;5049884;28;20033;-71
2023/03/06 02:39:19;;;;;;;16.90;9.52;;;;;;;6.51;69.94;99850.09;5063984;28;20033;-72
2023/03/06 02:41:44;;;;;;;18.27;9.65;;;;;;;6.58;69.48;99849.41;5060827;28;20021;-72
2023/03/06 02:44:10;;;;;;;19.83;9.88;;;;;;;6.58;69.52;99851.19;5052996;28;20082;-72
2023/03/06 02:46:35;;;;;;;19.92;10.15;;;;;;;6.58;69.51;99846.84;5049028;28;20084;-72
2023/03/06 02:49:01;;;;;;;17.08;9.43;;;;;;;6.56;69.93;99850.50;5051452;28;20202;-71
2023/03/06 02:51:26;;;;;;;18.95;9.60;;;;;;;6.53;69.88;99858.53;5050751;28;21551;-71
2023/03/06 02:53:52;;;;;;;16.30;10.10;;;;;;;6.54;69.71;99848.06;5048409;28;20397;-72
2023/03/06 02:56:18;;;;;;;19.15;9.52;;;;;;;6.56;69.84;99847.91;5050712;28;20037;-71
2023/03/06 02:58:43;;;;;;;19.67;9.77;;;;;;;6.57;69.46;99855.56;5050854;28;20707;-72
2023/03/06 03:01:09;;;;;;;21.48;10.93;;;;;;;6.57;69.77;99852.13;5050563;28;20036;-72
2023/03/06 03:03:35;;;;;;;18.83;9.50;;;;;;;6.57;69.97;99849.56;5049838;28;20350;-72
2023/03/06 03:06:03;;;;;;;13.90;8.90;;;;;;;6.54;69.91;99844.66;5048673;28;20036;-72
2023/03/06 03:08:29;;;;;;;16.05;9.27;;;;;;;6.48;70.06;99851.16;5034393;28;20036;-71
2023/03/06 03:10:55;;;;;;;18.17;9.98;;;;;;;6.50;70.04;99849.25;5056968;28;20569;-72
2023/03/06 03:13:21;;;;;;;18.95;10.05;;;;;;;6.51;70.15;99842.31;5051616;28;20044;-72
2023/03/06 03:15:57;;;;;;;19.08;10.13;;;;;;;6.52;69.59;99841.38;5033843;28;20051;-72
2023/03/06 03:18:22;;;;;;;18.00;10.18;;;;;;;6.51;70.01;99834.56;5051970;28;20132;-73
2023/03/06 03:20:48;;;;;;;17.75;9.32;;;;;;;6.51;70.17;99842.31;5049840;28;20032;-72
2023/03/06 03:23:13;;;;;;;20.02;10.40;;;;;;;6.48;69.94;99833.06;5050305;28;20029;-72
2023/03/06 03:25:39;;;;;;;21.20;9.52;;;;;;;6.45;70.17;99830.72;5034328;28;20475;-72
2023/03/06 03:28:04;;;;;;;17.08;9.32;;;;;;;6.45;70.04;99833.31;5049641;28;21036;-72
2023/03/06 03:30:29;;;;;;;17.67;9.80;;;;;;;6.44;70.13;99830.84;5050745;28;20116;-72
2023/03/06 03:32:55;;;;;;;20.98;9.30;;;;;;;6.44;70.21;99830.84;5051132;28;20044;-72
2023/03/06 03:35:20;;;;;;;17.88;9.25;;;;;;;6.47;70.20;99822.84;5050788;28;20029;-74
2023/03/06 03:37:46;;;;;;;19.88;10.48;;;;;;;6.50;69.87;99817.38;5050834;28;20050;-71
2023/03/06 03:40:11;;;;;;;17.00;10.02;;;;;;;6.50;70.12;99815.63;5050409;28;20545;-70
2023/03/06 03:42:37;;;;;;;17.65;9.68;;;;;;;6.49;70.12;99815.75;5054561;28;20103;-71
2023/03/06 03:45:03;;;;;;;18.45;8.63;;;;;;;6.50;69.97;99812.22;5052621;28;21147;-71
2023/03/06 03:47:28;;;;;;;17.50;9.43;;;;;;;6.50;69.85;99817.38;5052577;28;20043;-71
2023/03/06 03:49:53;;;;;;;22.10;9.38;;;;;;;6.51;69.93;99813.84;5052064;28;20164;-70
2023/03/06 03:52:19;;;;;;;18.95;9.48;;;;;;;6.50;69.77;99812.22;5054581;28;20093;-70
2023/03/06 03:54:44;;;;;;;19.92;9.70;;;;;;;6.50;69.77;99810.44;5053107;28;20668;-71
2023/03/06 03:57:10;;;;;;;29.58;18.02;;;;;;;6.50;69.83;99804.44;5055298;28;20044;-71
2023/03/06 03:59:35;;;;;;;22.00;11.15;;;;;;;6.47;70.20;99809.91;5054289;28;20045;-71
2023/03/06 04:02:03;;;;;;;20.50;10.93;;;;;;;6.42;70.30;99799.94;5052574;28;20035;-71
2023/03/06 04:04:29;;;;;;;25.83;10.13;;;;;;;6.44;70.07;99802.41;5054117;28;20033;-72
2023/03/06 04:06:55;;;;;;;19.65;10.50;;;;;;;6.46;70.13;99805.66;5053172;28;20119;-71
2023/03/06 04:09:20;;;;;;;15.15;10.00;;;;;;;6.49;70.06;99806.22;5055065;28;20059;-71
2023/03/06 04:11:45;;;;;;;18.73;9.30;;;;;;;6.52;69.51;99802.53;5051998;28;20154;-72
2023/03/06 04:14:11;;;;;;;19.63;9.40;;;;;;;6.55;69.55;99795.34;5053164;28;20032;-71
2023/03/06 04:16:36;;;;;;;15.27;9.40;;;;;;;6.50;69.87;99799.28;5051288;28;20098;-71
2023/03/06 04:19:02;;;;;;;16.92;9.60;;;;;;;6.45;70.33;99804.03;5052429;28;20091;-71
2023/03/06 04:21:27;;;;;;;22.20;9.45;;;;;;;6.38;70.84;99798.56;5052663;28;20032;-71
2023/03/06 04:23:53;;;;;;;17.65;9.15;;;;;;;6.33;70.92;99798.97;5052598;28;20447;-71
2023/03/06 04:26:18;;;;;;;19.65;9.45;;;;;;;6.36;70.67;99790.13;5054281;28;20176;-71
2023/03/06 04:28:44;;;;;;;19.73;10.00;;;;;;;6.38;70.58;99787.41;5052362;28;20051;-71
2023/03/06 04:31:11;;;;;;;18.25;9.05;;;;;;;6.39;70.55;99789.03;5053220;28;20442;-71
2023/03/06 04:33:37;;;;;;;14.68;8.43;;;;;;;6.43;69.92;99793.81;5050544;28;20063;-71
2023/03/06 04:36:03;;;;;;;16.80;8.27;;;;;;;6.52;69.68;99781.84;5052316;28;20037;-71
2023/03/06 04:38:29;;;;;;;12.57;7.82;;;;;;;6.52;69.43;99780.06;5054143;28;20044;-71
2023/03/06 04:40:55;;;;;;;15.55;7.80;;;;;;;6.56;69.51;99783.22;5051857;28;20029;-71
2023/03/06 04:43:20;;;;;;;19.98;7.93;;;;;;;6.56;69.30;99785.81;5051912;28;20040;-71
2023/03/06 04:45:46;;;;;;;13.52;8.95;;;;;;;6.54;69.49;99787.69;5050764;28;20032;-71
2023/03/06 04:48:13;;;;;;;17.48;8.68;;;;;;;6.54;69.51;99787.69;5053744;28;20410;-71
2023/03/06 04:50:39;;;;;;;16.35;9.40;;;;;;;6.54;69.33;99774.75;5050091;28;20029;-71
2023/03/06 04:53:04;;;;;;;14.10;8.00;;;;;;;6.59;69.29;99780.34;5049879;28;20101;-71
2023/03/06 04:55:30;;;;;;;19.60;8.88;;;;;;;6.59;69.46;99780.34;5048921;28;20771;-71
2023/03/06 04:57:56;;;;;;;17.75;8.68;;;;;;;6.57;69.42;99779.66;5052560;28;20043;-72
2023/03/06 05:00:29;;;;;;;15.32;8.38;;;;;;;6.57;69.44;99774.50;5065435;28;20063;-71
2023/03/06 05:02:55;;;;;;;13.90;8.07;;;;;;;6.55;69.91;99772.03;5050804;28;20444;-71
2023/03/06 05:05:21;;;;;;;17.40;8.48;;;;;;;6.59;69.66;99770.00;5052163;28;20033;-72
2023/03/06 05:07:46;;;;;;;19.00;8.73;;;;;;;6.63;69.96;99772.16;5051989;28;20032;-71
2023/03/06 05:10:14;;;;;;;13.68;8.75;;;;;;;6.61;70.18;99774.09;5054729;28;20511;-72
2023/03/06 05:12:39;;;;;;;20.30;8.43;;;;;;;6.59;70.07;99767.41;5050882;28;20052;-71
2023/03/06 05:15:06;;;;;;;18.08;9.93;;;;;;;6.56;70.60;99770.28;5051907;28;20036;-71
2023/03/06 05:17:32;;;;;;;16.92;8.77;;;;;;;6.48;70.42;99760.59;5051716;28;20037;-72
2023/03/06 05:19:57;;;;;;;17.75;10.02;;;;;;;6.42;70.68;99752.53;5048541;28;20089;-71
2023/03/06 05:22:23;;;;;;;15.95;9.45;;;;;;;6.38;71.09;99746.00;5053016;28;20044;-71
2023/03/06 05:24:48;;;;;;;14.85;8.60;;;;;;;6.39;70.94;99752.81;5050569;28;20389;-71
2023/03/06 05:27:14;;;;;;;19.50;9.98;;;;;;;6.44;70.87;99756.63;5051151;28;20021;-71
2023/03/06 05:29:39;;;;;;;14.52;8.18;;;;;;;6.48;70.65;99752.00;5052706;28;20133;-72
2023/03/06 05:32:05;;;;;;;12.05;8.25;;;;;;;6.47;70.74;99755.56;5050214;28;20041;-71
2023/03/06 05:34:31;;;;;;;19.08;9.75;;;;;;;6.50;70.75;99750.91;5050955;28;21109;-70
2023/03/06 05:36:56;;;;;;;14.90;9.27;;;;;;;6.47;70.73;99751.19;5050254;28;20072;-71
2023/03/06 05:39:21;;;;;;;18.10;9.13;;;;;;;6.48;70.71;99752.00;5036245;28;20036;-71
2023/03/06 05:41:47;;;;;;;15.90;9.13;;;;;;;6.49;70.89;99758.81;5051366;28;20024;-71
2023/03/06 05:44:12;;;;;;;15.57;9.38;;;;;;;6.46;71.00;99759.09;5050641;28;20097;-71
2023/03/06 05:46:38;;;;;;;16.20;9.35;;;;;;;6.46;70.82;99749.56;5051331;28;20028;-71
2023/03/06 05:49:03;;;;;;;15.13;8.05;;;;;;;6.48;70.76;99757.19;5051236;28;20032;-71
2023/03/06 05:51:29;;;;;;;19.05;8.77;;;;;;;6.48;70.91;99759.78;5051965;28;20032;-71
2023/03/06 05:53:54;;;;;;;15.68;9.10;;;;;;;6.51;70.62;99767.28;5051743;28;20059;-74
2023/03/06 05:56:20;;;;;;;17.05;8.93;;;;;;;6.52;70.84;99766.31;5035502;28;20066;-72
2023/03/06 05:58:46;;;;;;;18.65;9.05;;;;;;;6.52;70.76;99771.50;5050212;28;20558;-72
2023/03/06 06:01:18;;;;;;;19.02;9.27;;;;;;;6.52;71.05;99774.91;5052033;28;20060;-72
2023/03/06 06:03:43;;;;;;;14.95;8.63;;;;;;;6.55;70.84;99771.22;5051309;28;20052;-72
2023/03/06 06:06:12;;;;;;;17.75;9.85;;;;;;;6.56;70.67;99778.03;5063693;28;20163;-71
2023/03/06 06:08:38;;;;;;;15.32;8.48;;;;;;;6.57;70.80;99771.91;5049796;28;20075;-71
2023/03/06 06:11:05;;;;;;;18.52;9.68;;;;;;;6.60;70.56;99785.41;5048582;28;20032;-72
2023/03/06 06:13:30;;;;;;;21.27;9.18;;;;;;;6.60;70.84;99776.81;5054562;28;20063;-72
2023/03/06 06:15:56;;;;;;;16.55;9.18;;;;;;;6.60;70.89;99776.81;5055832;28;20464;-73
2023/03/06 06:18:21;;;;;;;23.85;8.88;;;;;;;6.59;70.49;99780.34;5049606;28;20095;-71
2023/03/06 06:20:47;;;;;;;18.20;10.85;;;;;;;6.58;70.76;99779.53;5057967;28;20093;-71
2023/03/06 06:23:12;;;;;;;19.30;9.57;;;;;;;6.60;70.79;99782.00;5057150;28;20115;-72
2023/03/06 06:25:37;;;;;;;18.35;9.57;;;;;;;6.61;70.61;99775.84;5059051;28;20182;-73
2023/03/06 06:28:04;;;;;;;18.23;9.00;;;;;;;6.61;70.82;99768.91;5060862;28;20177;-72
2023/03/06 06:30:30;;;;;;;19.45;10.25;;;;;;;6.60;71.00;99764.69;5059078;28;20029;-73
2023/03/06 06:32:56;;;;;;;22.17;9.93;;;;;;;6.63;71.12;99771.34;5060821;28;20044;-73
2023/03/06 06:35:21;;;;;;;20.02;10.25;;;;;;;6.66;70.98;99781.41;5062169;28;20388;-72
2023/03/06 06:37:47;;;;;;;16.77;9.32;;;;;;;6.64;71.23;99781.56;5056816;28;20115;-72
2023/03/06 06:40:13;;;;;;;17.15;10.00;;;;;;;6.65;71.84;99779.78;5055047;28;20551;-71
2023/03/06 06:42:38;;;;;;;21.27;10.00;;;;;;;6.61;72.31;99783.63;5062713;28;20107;-72
2023/03/06 06:45:04;;;;;;;24.20;10.00;;;;;;;6.61;72.33;99788.81;5065722;28;20441;-71
2023/03/06 06:47:31;;;;;;;20.40;10.63;;;;;;;6.57;72.80;99785.66;5067038;28;20043;-71
2023/03/06 06:49:57;;;;;;;17.80;10.52;;;;;;;6.58;73.35;99786.47;5063400;28;20431;-71
2023/03/06 06:52:23;;;;;;;18.70;10.43;;;;;;;6.57;73.60;99787.44;5066963;28;20028;-71
2023/03/06 06:54:49;;;;;;;18.42;10.70;;;;;;;6.55;74.27;99786.75;5066819;28;20476;-71
2023/03/06 06:57:15;;;;;;;21.42;10.98;;;;;;;6.48;75.42;99783.88;5065510;28;20033;-71
2023/03/06 06:59:40;;;;;;;38.60;15.45;;;;;;;6.36;77.32;99781.53;5061342;28;20044;-71
2023/03/06 07:02:06;;;;;;;34.05;14.05;;;;;;;6.25;78.42;99777.31;5068421;28;20103;-71
2023/03/06 07:04:31;;;;;;;27.30;11.88;;;;;;;6.17;79.25;99765.03;5066148;28;20040;-71
2023/03/06 07:06:57;;;;;;;23.55;11.30;;;;;;;6.12;80.76;99769.81;5066589;28;20414;-71
2023/03/06 07:09:23;;;;;;;20.98;11.75;;;;;;;6.12;82.50;99764.63;5069546;28;20037;-71
2023/03/06 07:11:48;;;;;;;17.77;12.00;;;;;;;6.14;82.78;99765.31;5066490;28;20052;-73
2023/03/06 07:14:14;;;;;;;21.73;11.15;;;;;;;6.12;83.59;99767.22;5065500;28;20048;-72
2023/03/06 07:16:39;;;;;;;20.63;11.15;;;;;;;6.15;85.00;99766.09;5070725;28;20116;-72
2023/03/06 07:19:06;;;;;;;19.27;10.95;;;;;;;6.19;84.25;99763.13;5072499;28;20033;-71
2023/03/06 07:21:31;;;;;;;18.05;11.10;;;;;;;6.23;84.76;99768.84;5073643;28;20024;-71
2023/03/06 07:23:58;;;;;;;26.17;12.30;;;;;;;6.29;85.17;99768.31;5070990;28;20024;-71
2023/03/06 07:26:25;;;;;;;16.95;9.82;;;;;;;6.41;84.84;99777.59;5072855;28;20472;-71
2023/03/06 07:28:52;;;;;;;23.50;14.63;;;;;;;6.52;85.29;99779.25;5054034;28;20040;-71
2023/03/06 07:31:20;;;;;;;25.38;13.13;;;;;;;6.60;86.07;99787.16;5064752;28;20037;-71
2023/03/06 07:33:46;;;;;;;26.92;13.43;;;;;;;6.60;86.55;99789.75;5073224;28;20028;-71
2023/03/06 07:36:12;;;;;;;23.95;11.93;;;;;;;6.57;86.17;99790.84;5077098;28;20032;-71
2023/03/06 07:38:37;;;;;;;22.08;11.13;;;;;;;6.56;85.72;99784.03;5072951;28;20111;-71
2023/03/06 07:41:04;;;;;;;16.95;10.23;;;;;;;6.51;85.17;99795.75;5069662;28;20052;-72
2023/03/06 07:43:30;;;;;;;21.48;10.68;;;;;;;6.49;85.89;99795.88;5071706;28;20036;-70
2023/03/06 07:45:57;;;;;;;18.75;9.82;;;;;;;6.55;85.99;99794.50;5069350;28;20085;-71
2023/03/06 07:48:23;;;;;;;17.52;10.48;;;;;;;6.60;85.64;99787.16;5071508;28;20040;-71
2023/03/06 07:50:59;;;;;;;21.63;11.88;;;;;;;6.64;86.81;99791.09;5069745;28;20124;-71
2023/03/06 07:53:25;;;;;;;18.17;10.88;;;;;;;6.69;85.54;99791.50;5062386;28;20039;-71
2023/03/06 07:55:51;;;;;;;20.65;10.98;;;;;;;6.74;85.60;99799.69;5067863;28;20424;-70
2023/03/06 07:58:17;;;;;;;26.33;11.30;;;;;;;6.74;85.37;99786.75;5065825;28;20067;-71
2023/03/06 08:00:42;;;;;;;19.13;10.27;;;;;;;6.68;85.94;99789.88;5064665;28;20100;-71
2023/03/06 08:03:10;;;;;;;20.30;11.45;;;;;;;6.64;85.81;99785.91;5067814;28;20036;-71
2023/03/06 08:05:35;;;;;;;20.35;12.25;;;;;;;6.67;85.32;99785.66;5050539;28;20481;-70
2023/03/06 08:08:01;;;;;;;19.92;11.65;;;;;;;6.78;85.05;99792.47;5071575;28;20124;-71
2023/03/06 08:10:27;;;;;;;20.20;11.32;;;;;;;6.85;85.24;99802.16;5068501;28;20033;-71
2023/03/06 08:12:52;;;;;;;19.50;10.32;;;;;;;6.89;84.89;99797.50;5071616;28;20123;-70
2023/03/06 08:15:18;;;;;;;18.48;11.13;;;;;;;6.93;84.83;99797.09;5068962;28;20032;-71
2023/03/06 08:17:44;;;;;;;24.30;11.57;;;;;;;6.94;84.45;99790.97;5070753;28;20089;-71
2023/03/06 08:20:10;;;;;;;18.50;10.10;;;;;;;7.00;84.64;99794.78;5072038;28;20032;-71
2023/03/06 08:22:36;;;;;;;21.65;10.93;;;;;;;7.10;84.06;99792.16;5071963;28;20029;-70
2023/03/06 08:25:02;;;;;;;21.10;11.63;;;;;;;7.17;83.81;99790.66;5070605;28;20214;-71
2023/03/06 08:27:30;;;;;;;18.63;11.75;;;;;;;7.20;83.77;99792.97;5070254;28;20476;-72
2023/03/06 08:29:56;;;;;;;22.13;11.32;;;;;;;7.20;83.23;99785.19;5071256;28;20043;-73
2023/03/06 08:32:21;;;;;;;20.52;11.07;;;;;;;7.24;83.86;99792.53;5071654;28;20033;-72
2023/03/06 08:34:47;;;;;;;18.77;10.48;;;;;;;7.30;83.23;99781.63;5066823;28;20493;-71
2023/03/06 08:37:12;;;;;;;20.63;11.85;;;;;;;7.31;83.42;99793.63;5071046;28;20392;-72
2023/03/06 08:39:38;;;;;;;17.95;11.73;;;;;;;7.33;83.62;99786.53;5071826;28;20491;-72
2023/03/06 08:42:03;;;;;;;24.35;12.05;;;;;;;7.41;84.34;99796.19;5070501;28;20021;-72
2023/03/06 08:44:28;;;;;;;21.27;12.45;;;;;;;7.49;84.33;99788.53;5071283;28;20036;-72
2023/03/06 08:46:54;;;;;;;24.17;13.10;;;;;;;7.45;84.00;99789.78;5070558;28;20147;-71
2023/03/06 08:49:19;;;;;;;23.88;12.65;;;;;;;7.49;83.92;99798.09;5071053;28;20032;-72
2023/03/06 08:51:45;;;;;;;20.67;12.82;;;;;;;7.56;83.51;99794.00;5069314;28;20039;-72
2023/03/06 08:54:12;;;;;;;20.92;11.85;;;;;;;7.67;83.08;99796.38;5069366;28;20430;-72
2023/03/06 08:56:37;;;;;;;23.95;12.13;;;;;;;7.76;82.94;99797.31;5069615;28;20507;-73
2023/03/06 08:59:04;;;;;;;23.92;12.15;;;;;;;7.85;82.64;99788.66;5062529;28;20036;-72
2023/03/06 09:01:33;;;;;;;24.70;14.23;;;;;;;7.80;82.40;99793.47;5072198;28;20353;-71
2023/03/06 09:04:00;;;;;;;19.25;12.32;;;;;;;7.85;82.63;99792.09;5066872;28;20086;-71
2023/03/06 09:06:28;;;;;;;21.67;12.75;;;;;;;7.90;82.37;99786.47;5068820;28;20116;-72
2023/03/06 09:08:54;;;;;;;26.55;12.40;;;;;;;7.94;81.94;99785.22;5065776;28;20025;-70
2023/03/06 09:11:22;;;;;;;23.10;11.98;;;;;;;7.98;81.69;99786.56;5069800;28;20051;-72
2023/03/06 09:13:47;;;;;;;18.38;11.02;;;;;;;8.02;81.66;99781.91;5068706;28;20040;-71
2023/03/06 09:16:13;;;;;;;24.42;12.70;;;;;;;8.14;81.58;99781.53;5069566;28;20043;-72
2023/03/06 09:18:39;;;;;;;22.83;12.32;;;;;;;8.13;81.05;99779.09;5067792;28;20033;-72
2023/03/06 09:21:05;;;;;;;21.10;12.63;;;;;;;8.20;81.15;99780.16;5066480;28;20021;-71
2023/03/06 09:23:31;;;;;;;31.45;14.88;;;;;;;8.22;81.17;99779.03;5074254;28;20069;-71
2023/03/06 09:25:58;;;;;;;18.60;13.23;;;;;;;8.16;81.14;99784.81;5063555;28;20036;-72
2023/03/06 09:28:24;;;;;;;22.80;13.75;;;;;;;8.18;81.17;99788.09;5058522;28;20037;-71
2023/03/06 09:30:49;;;;;;;26.17;13.75;;;;;;;8.21;81.29;99787.78;5063965;28;20449;-71
2023/03/06 09:33:16;;;;;;;29.75;13.30;;;;;;;8.18;81.55;99784.66;5065561;28;20071;-71
2023/03/06 09:35:49;;;;;;;20.65;11.90;;;;;;;8.08;81.65;99791.69;5068421;28;20032;-71
2023/03/06 09:38:15;;;;;;;23.17;12.85;;;;;;;8.15;81.68;99793.56;5061258;28;20036;-72
2023/03/06 09:40:56;;;;;;;22.55;12.55;;;;;;;8.15;81.75;99790.97;5063668;28;20036;-72
2023/03/06 09:43:44;;;;;;;21.67;12.52;;;;;;;8.14;81.46;99785.91;5063228;28;20457;-71
2023/03/06 09:46:12;;;;;;;22.58;12.43;;;;;;;8.19;81.37;99789.72;5060639;28;20051;-72
2023/03/06 09:48:50;;;;;;;21.05;11.50;;;;;;;8.27;80.64;99789.00;5067949;28;20036;-72
2023/03/06 09:51:20;;;;;;;18.65;11.05;;;;;;;8.36;80.12;99787.34;5066268;28;20153;-71
2023/03/06 09:54:10;;;;;;;19.00;11.43;;;;;;;8.52;80.52;99790.06;5065506;28;20578;-71
2023/03/06 09:56:36;;;;;;;21.30;10.93;;;;;;;8.62;79.80;99785.63;5059293;28;20488;-73
2023/03/06 09:59:23;;;;;;;18.20;10.38;;;;;;;8.64;78.72;99789.72;5059886;28;20057;-71
2023/03/06 10:02:14;;;;;;;20.20;11.77;;;;;;;8.63;78.79;99779.47;5064916;28;20138;-71
2023/03/06 10:04:43;;;;;;;20.63;11.57;;;;;;;8.75;78.58;99775.69;5062984;28;20111;-72
2023/03/06 10:07:42;;;;;;;23.30;11.23;;;;;;;8.88;77.80;99775.31;5066210;28;20037;-72
2023/03/06 10:10:16;;;;;;;23.50;11.25;;;;;;;8.98;77.82;99776.03;5055597;28;20131;-73
2023/03/06 10:13:02;;;;;;;23.15;12.02;;;;;;;9.10;77.62;99780.00;5062607;28;20041;-71
2023/03/06 10:15:31;;;;;;;;;;;;;;;9.11;77.24;99778.22;5062641;28;20046;-72
2023/03/06 10:17:56;;;;;;;24.27;11.63;;;;;;;9.28;77.08;99769.59;5065981;28;19919;-71
2023/03/06 10:20:43;;;;;;;19.70;11.05;;;;;;;9.34;76.50;99781.97;5059486;28;20040;-73
2023/03/06 10:23:25;;;;;;;22.35;10.60;;;;;;;9.37;76.44;99780.84;5060151;28;20531;-71
2023/03/06 10:25:53;;;;;;;17.73;10.65;;;;;;;9.45;76.79;99778.31;5061763;28;20468;-72
2023/03/06 10:28:45;;;;;;;17.80;11.40;;;;;;;9.61;76.35;99773.16;5064912;28;20155;-72
2023/03/06 10:31:23;;;;;;;21.55;12.07;;;;;;;9.60;75.94;99774.97;5064359;28;20028;-71
2023/03/06 10:33:57;;;;;;;23.33;12.30;;;;;;;9.56;76.11;99773.63;5066463;28;20122;-71
2023/03/06 10:36:27;;;;;;;22.70;11.52;;;;;;;9.55;76.53;99774.59;5067225;28;20032;-71
2023/03/06 10:38:55;;;;;;;26.05;11.73;;;;;;;9.60;76.70;99774.97;5069241;28;20082;-73
2023/03/06 10:41:22;;;;;;;18.65;11.40;;;;;;;9.66;77.21;99770.91;5062840;28;20488;-73
2023/03/06 10:44:03;;;;;;;22.58;12.00;;;;;;;9.71;76.59;99767.84;5064365;28;20047;-71
2023/03/06 10:46:41;;;;;;;20.05;11.18;;;;;;;9.96;76.73;99761.75;5055916;28;20484;-73
2023/03/06 10:49:22;;;;;;;23.88;12.43;;;;;;;10.30;76.87;99757.34;5059505;28;20047;-70
2023/03/06 10:52:19;;;;;;;26.75;15.73;;;;;;;10.42;78.23;99757.84;5076390;28;20500;-71
2023/03/06 10:54:46;;;;;;;32.13;17.65;;;;;;;10.31;79.27;99750.34;5061933;28;20033;-71
2023/03/06 10:57:38;;;;;;;31.95;19.13;;;;;;;10.22;80.78;99751.31;5071421;28;20040;-71
2023/03/06 11:00:21;;;;;;;28.30;17.10;;;;;;;10.12;80.27;99750.59;5063521;28;20127;-73
2023/03/06 11:03:04;;;;;;;32.08;16.05;;;;;;;10.13;79.62;99752.22;5068266;28;20502;-72
2023/03/06 11:05:29;;;;;;;30.60;18.60;;;;;;;10.16;79.95;99744.91;5060151;28;20028;-71
2023/03/06 11:07:59;;;;;;;33.45;17.85;;;;;;;10.24;80.14;99739.75;5070214;28;20043;-71
2023/03/06 11:10:26;;;;;;;31.40;17.75;;;;;;;10.33;79.95;99740.59;5069466;28;20157;-72
2023/03/06 11:13:06;;;;;;;34.10;17.83;;;;;;;10.38;79.99;99734.91;5065117;28;20137;-72
2023/03/06 11:15:32;;;;;;;26.20;16.33;;;;;;;10.39;80.22;99728.72;5071536;28;20035;-71
2023/03/06 11:18:08;;;;;;;30.85;16.83;;;;;;;10.34;80.18;99728.41;5072013;28;20033;-69
2023/03/06 11:20:41;;;;;;;37.78;17.40;;;;;;;10.32;79.89;99725.13;5068219;28;20036;-68
2023/03/06 11:23:12;;;;;;;23.80;15.82;;;;;;;10.22;79.91;99723.50;5070589;28;20028;-69
2023/03/06 11:25:49;;;;;;;27.58;14.80;;;;;;;10.27;79.49;99717.81;5071055;28;20039;-71
2023/03/06 11:28:41;;;;;;;25.92;13.82;;;;;;;10.27;78.48;99717.81;5069951;28;20123;-72
2023/03/06 11:31:12;;;;;;;30.75;16.27;;;;;;;10.19;78.47;99710.78;5069675;28;20031;-71